Time;durP1;ratioP1;P1;durP2;ratioP2;P2;SDS_P1;SDS_P2;PMS_P1;PMS_P2;Temp;Humidity;BMP_temperature;BMP_pressure;BME280_temperature;BME280_humidity;BME280_pressure;Samples;Min_cycle;Max_cycle;Signal;HPM_P1;HPM_P2
2023/05/15 00:02:16;;;;;;;4.50;4.20;;;;;;;11.42;100.00;99889.25;5021832;28;20220;-76
2023/05/15 00:04:42;;;;;;;4.50;4.20;;;;;;;11.39;100.00;99894.50;5023012;28;20223;-77
2023/05/15 00:07:07;;;;;;;4.23;3.93;;;;;;;11.38;100.00;99895.41;5024304;28;20590;-76
2023/05/15 00:09:32;;;;;;;4.40;4.00;;;;;;;11.36;100.00;99895.41;5019561;28;20667;-77
2023/05/15 00:11:58;;;;;;;4.20;3.90;;;;;;;11.34;100.00;99897.19;5021129;28;20776;-76
2023/05/15 00:14:23;;;;;;;4.90;4.50;;;;;;;11.35;100.00;99895.44;5023094;28;20685;-77
2023/05/15 00:16:49;;;;;;;5.03;4.73;;;;;;;11.37;100.00;99899.72;5023776;28;20254;-77
2023/05/15 00:19:15;;;;;;;4.90;4.60;;;;;;;11.38;100.00;99903.16;5020099;28;20212;-77
2023/05/15 00:21:40;;;;;;;4.60;4.30;;;;;;;11.38;100.00;99905.75;5018748;28;20192;-77
2023/05/15 00:24:06;;;;;;;4.63;4.33;;;;;;;11.37;100.00;99906.63;5022593;28;20603;-77
2023/05/15 00:26:31;;;;;;;4.97;4.67;;;;;;;11.34;100.00;99912.75;5022805;28;20705;-76
2023/05/15 00:28:56;;;;;;;4.63;4.33;;;;;;;11.34;100.00;99909.28;4996623;28;20200;-77
2023/05/15 00:31:22;;;;;;;4.73;4.43;;;;;;;11.37;100.00;99911.81;5020439;28;20295;-76
2023/05/15 00:33:47;;;;;;;5.13;4.73;;;;;;;11.41;100.00;99900.53;5020712;28;20408;-76
2023/05/15 00:36:12;;;;;;;4.60;4.30;;;;;;;11.45;100.00;99904.75;5002592;28;20266;-76
2023/05/15 00:38:39;;;;;;;5.17;4.77;;;;;;;11.46;100.00;99901.28;5018536;28;20191;-76
2023/05/15 00:41:06;;;;;;;4.70;4.40;;;;;;;11.48;100.00;99904.69;5020065;28;20810;-76
2023/05/15 00:43:33;;;;;;;5.03;4.70;;;;;;;11.53;100.00;99909.78;5022112;28;20185;-77
2023/05/15 00:46:01;;;;;;;4.90;4.53;;;;;;;11.56;100.00;99905.41;5021474;28;20920;-76
2023/05/15 00:48:28;;;;;;;5.00;4.60;;;;;;;11.57;100.00;99909.69;5005653;28;21008;-77
2023/05/15 00:50:56;;;;;;;4.63;4.33;;;;;;;11.55;100.00;99908.88;5006736;28;20171;-76
2023/05/15 00:53:22;;;;;;;4.43;4.13;;;;;;;11.49;100.00;99903.81;5019726;28;20188;-77
2023/05/15 00:55:48;;;;;;;4.63;4.33;;;;;;;11.46;100.00;99905.63;5021268;28;20693;-76
2023/05/15 00:58:14;;;;;;;4.70;4.40;;;;;;;11.42;100.00;99899.63;5021215;28;20276;-77
2023/05/15 01:00:41;;;;;;;5.23;4.73;;;;;;;11.38;100.00;99911.78;5021370;28;20209;-76
2023/05/15 01:03:07;;;;;;;4.83;4.53;;;;;;;11.35;100.00;99905.81;5021101;28;20192;-76
2023/05/15 01:05:32;;;;;;;5.33;4.97;;;;;;;11.33;100.00;99912.75;5024367;28;20222;-76
2023/05/15 01:08:13;;;;;;;4.43;4.03;;;;;;;11.36;100.00;99910.94;5022547;28;20187;-77
2023/05/15 01:10:40;;;;;;;4.87;4.57;;;;;;;11.36;100.00;99912.69;5019895;28;20566;-76
2023/05/15 01:13:07;;;;;;;4.80;4.40;;;;;;;11.40;100.00;99909.19;5020984;28;20195;-78
2023/05/15 01:15:33;;;;;;;4.50;4.20;;;;;;;11.41;100.00;99914.31;5023759;28;20319;-76
2023/05/15 01:17:58;;;;;;;4.67;4.37;;;;;;;11.44;100.00;99923.75;5006198;28;20180;-76
2023/05/15 01:20:25;;;;;;;4.93;4.53;;;;;;;11.47;100.00;99928.06;5004449;28;20250;-77
2023/05/15 01:22:59;;;;;;;4.70;4.40;;;;;;;11.48;100.00;99928.00;5023561;28;20199;-77
2023/05/15 01:25:46;;;;;;;4.47;4.17;;;;;;;11.41;100.00;99934.22;5025002;28;20224;-76
2023/05/15 01:28:17;;;;;;;5.20;4.80;;;;;;;11.29;100.00;99928.34;5026361;28;20726;-76
2023/05/15 01:30:46;;;;;;;4.57;4.27;;;;;;;11.19;100.00;99939.75;5027068;28;20193;-76
2023/05/15 01:33:22;;;;;;;4.50;4.20;;;;;;;11.09;100.00;99936.47;5027585;28;20206;-77
2023/05/15 01:35:56;;;;;;;4.20;3.90;;;;;;;11.03;100.00;99933.13;5021132;28;20219;-74
2023/05/15 01:38:34;;;;;;;4.63;4.33;;;;;;;11.02;100.00;99934.00;5007083;28;20229;-76
2023/05/15 01:41:12;;;;;;;4.00;3.70;;;;;;;11.05;100.00;99936.53;5040405;28;20203;-77
2023/05/15 01:43:43;;;;;;;4.40;4.10;;;;;;;11.09;100.00;99931.28;5048525;28;20174;-78
2023/05/15 01:46:13;;;;;;;4.10;3.80;;;;;;;11.12;100.00;99930.38;5031486;28;20235;-76
2023/05/15 01:48:40;;;;;;;4.40;4.10;;;;;;;11.15;100.00;99932.06;5021990;28;20605;-75
2023/05/15 01:51:07;;;;;;;3.97;3.67;;;;;;;11.14;100.00;99926.00;5026922;28;20192;-76
2023/05/15 01:53:34;;;;;;;4.60;4.30;;;;;;;11.11;100.00;99926.94;5024156;28;20191;-75
2023/05/15 01:56:01;;;;;;;4.47;4.17;;;;;;;11.08;100.00;99926.97;5022869;28;20271;-75
2023/05/15 01:58:27;;;;;;;4.17;3.87;;;;;;;11.05;100.00;99928.78;5022947;28;20208;-76
2023/05/15 02:00:52;;;;;;;4.43;4.13;;;;;;;11.01;100.00;99927.09;5024095;28;20974;-75
2023/05/15 02:03:19;;;;;;;4.30;4.00;;;;;;;10.96;100.00;99930.66;5025308;28;20270;-76
2023/05/15 02:05:46;;;;;;;4.40;4.10;;;;;;;10.93;100.00;99935.88;5026114;28;20750;-76
2023/05/15 02:08:11;;;;;;;4.37;4.07;;;;;;;10.92;100.00;99936.75;5009817;28;20211;-77
2023/05/15 02:10:38;;;;;;;5.27;4.77;;;;;;;10.91;100.00;99931.56;5027627;28;20265;-76
2023/05/15 02:13:06;;;;;;;4.33;4.03;;;;;;;10.90;100.00;99935.91;5029302;28;20629;-75
2023/05/15 02:15:31;;;;;;;4.67;4.27;;;;;;;10.89;100.00;99938.53;5029491;28;20277;-76
2023/05/15 02:17:57;;;;;;;4.77;4.30;;;;;;;10.89;100.00;99938.53;5011746;28;20271;-77
2023/05/15 02:20:22;;;;;;;4.70;4.40;;;;;;;10.88;100.00;99935.06;5026228;28;20208;-75
2023/05/15 02:22:47;;;;;;;4.17;3.87;;;;;;;10.89;100.00;99938.53;5027143;28;20575;-76
2023/05/15 02:25:13;;;;;;;4.70;4.30;;;;;;;10.90;100.00;99935.91;5027357;28;20212;-75
2023/05/15 02:27:57;;;;;;;4.50;4.20;;;;;;;10.91;100.00;99922.09;5016134;28;20808;-75
2023/05/15 02:30:37;;;;;;;4.93;4.63;;;;;;;10.91;100.00;99916.91;5023851;28;20257;-76
2023/05/15 02:33:18;;;;;;;4.20;3.90;;;;;;;10.91;100.00;99921.22;5002036;28;20248;-76
2023/05/15 02:35:46;;;;;;;4.67;4.30;;;;;;;10.91;100.00;99916.91;5025459;28;20285;-75
2023/05/15 02:38:17;;;;;;;4.63;4.33;;;;;;;10.91;100.00;99909.16;5024385;28;20188;-76
2023/05/15 02:40:44;;;;;;;5.13;4.47;;;;;;;10.91;100.00;99906.56;5022213;28;20206;-76
2023/05/15 02:43:11;;;;;;;4.63;4.33;;;;;;;10.91;100.00;99906.56;5021728;28;20188;-76
2023/05/15 02:45:38;;;;;;;5.33;4.93;;;;;;;10.90;100.00;99906.56;5023703;28;20208;-75
2023/05/15 02:48:04;;;;;;;4.73;4.43;;;;;;;10.89;100.00;99897.13;5022249;28;20183;-76
2023/05/15 02:50:29;;;;;;;5.33;4.90;;;;;;;10.88;100.00;99905.75;5022025;28;20555;-75
2023/05/15 02:53:02;;;;;;;4.53;4.23;;;;;;;10.86;100.00;99907.53;5021573;28;20199;-75
2023/05/15 02:55:28;;;;;;;5.37;4.87;;;;;;;10.84;100.00;99910.13;5022357;28;20213;-76
2023/05/15 02:57:53;;;;;;;5.13;4.73;;;;;;;10.83;100.00;99911.00;5022605;28;20278;-75
2023/05/15 03:00:18;;;;;;;5.43;5.03;;;;;;;10.83;100.00;99917.03;5022677;28;20205;-76
2023/05/15 03:02:44;;;;;;;5.47;5.07;;;;;;;10.80;100.00;99919.66;5004378;28;20237;-75
2023/05/15 03:05:09;;;;;;;5.20;4.80;;;;;;;10.78;100.00;99923.16;5007450;28;20218;-76
2023/05/15 03:07:34;;;;;;;4.97;4.67;;;;;;;10.74;100.00;99914.56;5023361;28;20187;-75
2023/05/15 03:10:00;;;;;;;5.33;4.93;;;;;;;10.74;100.00;99917.16;5023515;28;20682;-76
2023/05/15 03:12:25;;;;;;;6.00;5.60;;;;;;;10.76;100.00;99904.22;5025003;28;20195;-75
2023/05/15 03:14:51;;;;;;;5.83;5.43;;;;;;;10.78;100.00;99910.22;5004927;28;20231;-76
2023/05/15 03:17:16;;;;;;;5.20;4.80;;;;;;;10.80;100.00;99903.28;5027091;28;20292;-77
2023/05/15 03:19:41;;;;;;;5.40;5.00;;;;;;;10.80;100.00;99911.91;5025038;28;20223;-75
2023/05/15 03:22:06;;;;;;;4.97;4.67;;;;;;;10.83;100.00;99913.56;5024879;28;20214;-75
2023/05/15 03:24:32;;;;;;;5.53;5.13;;;;;;;10.82;100.00;99910.16;5025848;28;20206;-77
2023/05/15 03:26:57;;;;;;;5.30;5.00;;;;;;;10.84;100.00;99904.94;5023966;28;20613;-77
2023/05/15 03:29:22;;;;;;;4.83;4.53;;;;;;;10.86;100.00;99910.09;5007128;28;20210;-77
2023/05/15 03:31:48;;;;;;;5.10;4.80;;;;;;;10.86;100.00;99910.94;5023039;28;20247;-75
2023/05/15 03:34:13;;;;;;;5.03;4.70;;;;;;;10.87;100.00;99914.41;5025863;28;20585;-75
2023/05/15 03:36:38;;;;;;;5.23;4.87;;;;;;;10.87;100.00;99915.25;5024278;28;20213;-76
2023/05/15 03:39:04;;;;;;;5.63;5.23;;;;;;;10.89;100.00;99923.00;5025720;28;20188;-76
2023/05/15 03:41:29;;;;;;;5.00;4.63;;;;;;;10.90;100.00;99924.69;5023053;28;20366;-76
2023/05/15 03:43:54;;;;;;;5.27;4.87;;;;;;;10.92;100.00;99922.94;5009959;28;20195;-75
2023/05/15 03:46:20;;;;;;;5.37;4.87;;;;;;;10.94;100.00;99927.22;5018267;28;20204;-76
2023/05/15 03:48:45;;;;;;;5.13;4.73;;;;;;;10.95;100.00;99926.34;5023627;28;20298;-75
2023/05/15 03:51:10;;;;;;;5.00;4.70;;;;;;;10.97;100.00;99921.13;5023320;28;20184;-77
2023/05/15 03:53:36;;;;;;;5.03;4.63;;;;;;;11.00;100.00;99921.09;5021855;28;20632;-75
2023/05/15 03:56:02;;;;;;;4.73;4.43;;;;;;;11.03;100.00;99918.44;5023098;28;20222;-76
2023/05/15 03:58:27;;;;;;;4.70;4.40;;;;;;;11.08;100.00;99920.97;5018500;28;20183;-75
2023/05/15 04:00:53;;;;;;;4.97;4.67;;;;;;;11.10;100.00;99916.63;5003283;28;20214;-76
2023/05/15 04:03:18;;;;;;;5.37;4.90;;;;;;;11.12;100.00;99920.00;5022829;28;20203;-75
2023/05/15 04:05:44;;;;;;;4.80;4.50;;;;;;;11.16;100.00;99919.06;5010019;28;20763;-76
2023/05/15 04:08:11;;;;;;;4.90;4.60;;;;;;;11.23;100.00;99918.09;5004850;28;20291;-76
2023/05/15 04:10:36;;;;;;;4.53;4.23;;;;;;;11.35;100.00;99919.59;5021589;28;20238;-77
2023/05/15 04:13:01;;;;;;;4.50;4.20;;;;;;;11.60;100.00;99919.16;5020245;28;20191;-77
2023/05/15 04:15:27;;;;;;;4.53;4.23;;;;;;;11.83;100.00;99923.91;5022672;28;20239;-76
2023/05/15 04:17:53;;;;;;;4.67;4.27;;;;;;;11.89;100.00;99923.75;5022463;28;20624;-75
2023/05/15 04:20:21;;;;;;;4.57;4.27;;;;;;;11.89;100.00;99923.75;5022232;28;20219;-75
2023/05/15 04:22:47;;;;;;;4.63;4.33;;;;;;;11.89;100.00;99922.91;5001681;28;20199;-77
2023/05/15 04:25:13;;;;;;;4.40;4.10;;;;;;;11.88;100.00;99922.03;5022116;28;20293;-76
2023/05/15 04:27:39;;;;;;;4.17;3.97;;;;;;;11.90;100.00;99928.06;5022898;28;20261;-75
2023/05/15 04:30:06;;;;;;;4.63;4.23;;;;;;;11.94;100.00;99925.41;5020220;28;20176;-76
2023/05/15 04:32:36;;;;;;;4.23;3.93;;;;;;;11.96;100.00;99926.25;5003968;28;21023;-79
2023/05/15 04:35:09;;;;;;;4.90;4.50;;;;;;;11.99;100.00;99928.81;5017530;28;20794;-76
2023/05/15 04:37:38;;;;;;;4.37;4.07;;;;;;;12.03;100.00;99923.53;5021018;28;20781;-75
2023/05/15 04:40:06;;;;;;;4.33;4.03;;;;;;;12.06;100.00;99930.38;5023436;28;20216;-76
2023/05/15 04:42:31;;;;;;;4.57;4.27;;;;;;;12.10;100.00;99923.41;5020523;28;20244;-75
2023/05/15 04:44:56;;;;;;;4.40;4.10;;;;;;;12.12;100.00;99927.66;5022013;28;20220;-76
2023/05/15 04:47:22;;;;;;;4.27;3.97;;;;;;;12.14;100.00;99925.03;5022256;28;20281;-76
2023/05/15 04:49:48;;;;;;;4.37;4.07;;;;;;;12.16;100.00;99931.91;5019331;28;20323;-75
2023/05/15 04:52:14;;;;;;;3.97;3.67;;;;;;;12.19;100.00;99924.03;5021679;28;20205;-76
2023/05/15 04:54:40;;;;;;;4.10;3.80;;;;;;;12.22;100.00;99925.72;5004665;28;20613;-76
2023/05/15 04:57:06;;;;;;;4.33;3.97;;;;;;;12.29;100.00;99931.63;5007034;28;21010;-76
2023/05/15 04:59:31;;;;;;;4.60;4.30;;;;;;;12.35;100.00;99934.06;5018633;28;20221;-76
2023/05/15 05:01:57;;;;;;;4.40;4.10;;;;;;;12.46;100.00;99928.66;5000021;28;20197;-77
2023/05/15 05:04:22;;;;;;;4.47;4.17;;;;;;;12.58;100.00;99935.31;5021084;28;20190;-77
2023/05/15 05:06:47;;;;;;;4.73;4.43;;;;;;;12.71;100.00;99934.16;5021634;28;20735;-76
2023/05/15 05:09:13;;;;;;;4.40;4.00;;;;;;;12.85;100.00;99936.44;5025766;28;20183;-76
2023/05/15 05:11:42;;;;;;;3.90;3.60;;;;;;;13.06;100.00;99934.19;5021146;28;20187;-77
2023/05/15 05:14:08;;;;;;;4.13;3.83;;;;;;;13.24;100.00;99931.13;5021194;28;20284;-76
2023/05/15 05:16:34;;;;;;;3.80;3.50;;;;;;;13.40;100.00;99930.75;5005148;28;20198;-77
2023/05/15 05:18:59;;;;;;;4.23;3.93;;;;;;;13.56;100.00;99925.97;5018097;28;20190;-76
2023/05/15 05:21:25;;;;;;;4.20;3.90;;;;;;;14.13;100.00;99929.59;5015718;28;20222;-76
2023/05/15 05:23:50;;;;;;;3.90;3.60;;;;;;;15.24;100.00;99927.03;5022392;28;20248;-76
2023/05/15 05:26:15;;;;;;;4.00;3.70;;;;;;;16.33;100.00;99923.97;5005247;28;20299;-77
2023/05/15 05:28:41;;;;;;;4.63;4.27;;;;;;;17.46;96.53;99921.19;5003288;28;20202;-77
2023/05/15 05:31:06;;;;;;;6.20;5.70;;;;;;;18.26;92.11;99925.44;5022595;28;20640;-75
2023/05/15 05:33:31;;;;;;;6.20;5.70;;;;;;;18.94;89.18;99925.75;5000682;28;20194;-76
2023/05/15 05:35:57;;;;;;;5.40;5.00;;;;;;;19.78;85.86;99923.19;5020462;28;20285;-77
2023/05/15 05:38:22;;;;;;;4.40;4.10;;;;;;;20.59;83.32;99920.63;5017771;28;21036;-76
2023/05/15 05:40:47;;;;;;;4.53;4.13;;;;;;;21.29;80.36;99918.31;5017071;28;20210;-76
2023/05/15 05:43:13;;;;;;;4.47;4.07;;;;;;;21.89;78.42;99919.13;5014259;28;20191;-77
2023/05/15 05:45:38;;;;;;;5.90;5.30;;;;;;;22.46;76.69;99919.97;5018864;28;20250;-76
2023/05/15 05:48:03;;;;;;;5.70;5.20;;;;;;;23.09;75.20;99919.41;5023382;28;20183;-77
2023/05/15 05:50:29;;;;;;;7.83;7.07;;;;;;;23.67;73.33;99924.31;5021430;28;20213;-76
2023/05/15 05:52:54;;;;;;;7.80;7.10;;;;;;;24.24;71.06;99922.97;5020601;28;20188;-76
2023/05/15 05:55:19;;;;;;;5.73;5.13;;;;;;;24.77;69.74;99924.44;5019664;28;20212;-77
2023/05/15 05:57:45;;;;;;;6.47;5.83;;;;;;;25.05;69.01;99927.66;5020416;28;20191;-76
2023/05/15 06:00:11;;;;;;;4.87;4.47;;;;;;;25.31;67.79;99924.84;5023195;28;20219;-75
2023/05/15 06:02:37;;;;;;;4.40;4.00;;;;;;;25.75;67.20;99920.56;5025377;28;20221;-77
2023/05/15 06:05:03;;;;;;;3.70;3.40;;;;;;;25.98;66.53;99920.53;5023388;28;21021;-76
2023/05/15 06:07:28;;;;;;;3.77;3.47;;;;;;;25.15;66.92;99927.81;5018110;28;20224;-75
2023/05/15 06:09:54;;;;;;;3.27;3.00;;;;;;;24.05;68.61;99926.06;5025466;28;20191;-76
2023/05/15 06:12:19;;;;;;;3.70;3.40;;;;;;;23.03;70.68;99928.59;5026034;28;20187;-75
2023/05/15 06:14:45;;;;;;;5.30;4.80;;;;;;;22.64;72.10;99930.28;5027494;28;20207;-75
2023/05/15 06:17:10;;;;;;;4.60;4.30;;;;;;;22.67;72.05;99927.44;5027341;28;20187;-77
2023/05/15 06:19:35;;;;;;;5.20;4.80;;;;;;;22.34;72.83;99926.88;5023991;28;20222;-75
2023/05/15 06:22:01;;;;;;;4.40;4.10;;;;;;;22.03;73.76;99934.09;5005488;28;20381;-76
2023/05/15 06:24:26;;;;;;;5.70;4.43;;;;;;;21.59;74.55;99932.38;5021881;28;20194;-76
2023/05/15 06:26:52;;;;;;;4.93;4.53;;;;;;;21.11;76.21;99936.06;5026294;28;20243;-76
2023/05/15 06:29:17;;;;;;;4.70;4.40;;;;;;;20.74;76.91;99942.56;5027650;28;20260;-75
2023/05/15 06:31:42;;;;;;;6.07;5.27;;;;;;;20.37;77.66;99938.44;5023330;28;20678;-76
2023/05/15 06:34:08;;;;;;;5.90;5.40;;;;;;;20.18;78.76;99929.91;5009892;28;20188;-76
2023/05/15 06:36:34;;;;;;;6.33;5.77;;;;;;;20.13;79.41;99930.13;5026303;28;20203;-75
2023/05/15 06:38:59;;;;;;;5.53;5.00;;;;;;;20.14;79.09;99934.47;5028505;28;20215;-75
2023/05/15 06:41:24;;;;;;;4.70;4.23;;;;;;;20.07;79.52;99933.94;5023561;28;20598;-76
2023/05/15 06:43:50;;;;;;;5.77;5.27;;;;;;;20.23;79.25;99936.59;5025949;28;20196;-76
2023/05/15 06:46:17;;;;;;;6.93;6.33;;;;;;;20.48;78.71;99940.47;5008404;28;20242;-76
2023/05/15 06:48:43;;;;;;;5.50;5.00;;;;;;;20.51;78.40;99936.81;5026806;28;20471;-76
2023/05/15 06:51:09;;;;;;;5.37;4.40;;;;;;;20.55;78.19;99933.97;5022918;28;20685;-76
2023/05/15 06:53:34;;;;;;;3.93;3.63;;;;;;;20.47;78.65;99940.59;5025521;28;20179;-75
2023/05/15 06:55:59;;;;;;;4.30;3.57;;;;;;;20.35;78.78;99936.84;5025460;28;20268;-76
2023/05/15 06:58:25;;;;;;;3.40;3.10;;;;;;;20.24;79.31;99934.81;5025792;28;20195;-75
2023/05/15 07:00:50;;;;;;;3.47;3.17;;;;;;;20.30;79.48;99934.47;5016469;28;20242;-75
2023/05/15 07:03:16;;;;;;;3.20;3.00;;;;;;;20.45;79.59;99931.94;5020521;28;20203;-76
2023/05/15 07:05:41;;;;;;;6.50;3.70;;;;;;;20.58;79.07;99934.69;5021143;28;20303;-75
2023/05/15 07:08:07;;;;;;;3.40;3.10;;;;;;;20.73;78.75;99936.44;5022853;28;20831;-75
2023/05/15 07:10:32;;;;;;;3.63;3.33;;;;;;;20.78;78.46;99926.56;5014467;28;20278;-75
2023/05/15 07:12:57;;;;;;;3.47;3.17;;;;;;;20.69;78.82;99934.97;5017301;28;20195;-77
2023/05/15 07:15:23;;;;;;;3.50;3.20;;;;;;;20.75;78.67;99931.13;5024020;28;20215;-76
2023/05/15 07:17:48;;;;;;;3.50;3.20;;;;;;;20.84;78.36;99928.84;5025490;28;20241;-77
2023/05/15 07:20:13;;;;;;;3.70;3.30;;;;;;;20.94;78.22;99938.81;5025671;28;20211;-76
2023/05/15 07:22:39;;;;;;;3.40;3.10;;;;;;;21.07;77.77;99941.59;5024335;28;20707;-77
2023/05/15 07:25:05;;;;;;;3.23;3.00;;;;;;;21.24;76.90;99938.84;5025498;28;20211;-76
2023/05/15 07:27:30;;;;;;;3.30;3.10;;;;;;;21.31;77.06;99937.50;5028413;28;20309;-76
2023/05/15 07:29:56;;;;;;;3.40;3.07;;;;;;;21.36;76.41;99934.59;5005563;28;20295;-77
2023/05/15 07:32:22;;;;;;;3.00;2.80;;;;;;;21.25;76.74;99932.59;4995728;28;20683;-76
2023/05/15 07:34:47;;;;;;;3.43;3.00;;;;;;;21.23;77.18;99938.91;5024825;28;20298;-76
2023/05/15 07:37:13;;;;;;;3.07;2.87;;;;;;;21.28;76.98;99931.59;5019324;28;20670;-76
2023/05/15 07:39:38;;;;;;;2.90;2.70;;;;;;;21.41;76.94;99929.91;5025498;28;20211;-78
2023/05/15 07:42:03;;;;;;;3.57;3.27;;;;;;;21.62;76.38;99925.16;5022932;28;20188;-76
2023/05/15 07:44:29;;;;;;;3.60;3.20;;;;;;;21.98;75.88;99940.59;5024338;28;20187;-76
2023/05/15 07:46:55;;;;;;;3.00;2.80;;;;;;;22.34;75.33;99936.56;5022631;28;20211;-76
2023/05/15 07:49:20;;;;;;;3.00;2.70;;;;;;;22.85;74.45;99925.38;5024560;28;20258;-75
2023/05/15 07:51:46;;;;;;;3.90;2.93;;;;;;;23.21;73.90;99925.69;5020469;28;20194;-76
2023/05/15 07:54:11;;;;;;;4.10;2.60;;;;;;;23.51;73.12;99933.31;5025282;28;20199;-76
2023/05/15 07:56:36;;;;;;;2.60;2.40;;;;;;;23.46;72.97;99926.66;5024817;28;20218;-76
2023/05/15 07:59:02;;;;;;;2.87;2.67;;;;;;;23.20;72.70;99921.34;5025684;28;20183;-77
2023/05/15 08:01:27;;;;;;;15.00;3.77;;;;;;;23.04;72.52;99924.16;5021825;28;20215;-76
2023/05/15 08:03:53;;;;;;;3.77;2.43;;;;;;;22.91;72.59;99909.16;4998115;28;20233;-76
2023/05/15 08:06:18;;;;;;;2.80;2.60;;;;;;;22.99;72.09;99909.47;5024820;28;20596;-77
2023/05/15 08:08:43;;;;;;;3.07;2.53;;;;;;;22.98;72.04;99907.81;5021003;28;20262;-76
2023/05/15 08:11:09;;;;;;;2.43;2.33;;;;;;;23.01;72.20;99906.75;5001257;28;20979;-76
2023/05/15 08:13:34;;;;;;;2.70;2.50;;;;;;;23.02;72.20;99899.66;5021005;28;20194;-75
2023/05/15 08:15:59;;;;;;;2.57;2.37;;;;;;;22.99;72.29;99904.19;5023356;28;20211;-76
2023/05/15 08:18:25;;;;;;;2.80;2.60;;;;;;;22.91;72.75;99893.31;5005682;28;20215;-77
2023/05/15 08:20:51;;;;;;;2.70;2.50;;;;;;;22.84;72.81;99903.44;5021633;28;20302;-76
2023/05/15 08:23:16;;;;;;;2.50;2.40;;;;;;;22.73;72.58;99898.03;5023106;28;20218;-77
2023/05/15 08:25:42;;;;;;;3.83;2.50;;;;;;;22.67;72.92;99898.44;5002597;28;20603;-75
2023/05/15 08:28:07;;;;;;;2.87;2.67;;;;;;;22.64;73.32;99894.22;5019757;28;20215;-76
2023/05/15 08:30:33;;;;;;;2.77;2.57;;;;;;;22.57;73.13;99892.06;5023375;28;20195;-76
2023/05/15 08:32:58;;;;;;;2.70;2.50;;;;;;;22.46;73.31;99895.41;5022325;28;20206;-76
2023/05/15 08:35:23;;;;;;;3.03;2.83;;;;;;;22.33;73.66;99897.94;5005703;28;20235;-77
2023/05/15 08:37:49;;;;;;;2.73;2.53;;;;;;;22.18;73.66;99903.25;5023011;28;20183;-75
2023/05/15 08:40:14;;;;;;;2.90;2.70;;;;;;;22.05;74.04;99897.09;5020756;28;20206;-77
2023/05/15 08:42:47;;;;;;;2.87;2.60;;;;;;;22.01;74.09;99900.84;5023687;28;20583;-77
2023/05/15 08:45:12;;;;;;;3.20;2.87;;;;;;;21.88;74.34;99903.44;5012803;28;20229;-76
2023/05/15 08:47:40;;;;;;;3.53;2.80;;;;;;;21.69;74.56;99901.09;5013526;28;20643;-76
2023/05/15 08:50:10;;;;;;;3.10;2.80;;;;;;;21.56;75.01;99903.59;5019392;28;20191;-76
2023/05/15 08:52:37;;;;;;;3.13;2.93;;;;;;;21.62;75.13;99900.63;5024106;28;20179;-77
2023/05/15 08:55:03;;;;;;;3.20;3.00;;;;;;;21.75;74.82;99900.69;5025321;28;20211;-77
2023/05/15 08:57:28;;;;;;;2.47;2.27;;;;;;;21.83;74.50;99895.81;5023825;28;20203;-77
2023/05/15 08:59:55;;;;;;;2.63;2.43;;;;;;;21.89;74.41;99897.22;5005806;28;20217;-77
2023/05/15 09:02:21;;;;;;;2.93;2.70;;;;;;;21.96;74.02;99890.59;5019599;28;21029;-76
2023/05/15 09:04:47;;;;;;;2.87;2.67;;;;;;;22.01;74.36;99895.59;4997653;28;20203;-76
2023/05/15 09:07:14;;;;;;;2.63;2.47;;;;;;;22.08;74.51;99891.63;5016084;28;20204;-76
2023/05/15 09:09:42;;;;;;;2.80;2.60;;;;;;;22.09;74.45;99890.69;5014991;28;20183;-78
2023/05/15 09:12:10;;;;;;;4.30;2.40;;;;;;;22.09;74.02;99888.06;5016108;28;20216;-77
2023/05/15 09:14:35;;;;;;;2.67;2.33;;;;;;;22.07;73.67;99885.53;5015540;28;20191;-76
2023/05/15 09:17:01;;;;;;;2.17;2.03;;;;;;;22.12;73.67;99882.59;5013503;28;21556;-77
2023/05/15 09:19:26;;;;;;;3.07;2.50;;;;;;;22.13;73.20;99879.00;5019618;28;20219;-75
2023/05/15 09:21:52;;;;;;;2.60;2.27;;;;;;;22.23;73.23;99885.38;5013882;28;20281;-77
2023/05/15 09:24:24;;;;;;;3.13;2.50;;;;;;;22.33;72.79;99879.50;5013086;28;20732;-76
2023/05/15 09:27:06;;;;;;;2.20;2.10;;;;;;;22.46;71.65;99880.41;5014585;28;20269;-76
2023/05/15 09:29:33;;;;;;;2.40;2.20;;;;;;;22.48;71.29;99873.25;5015791;28;20226;-77
2023/05/15 09:32:07;;;;;;;2.20;2.10;;;;;;;22.47;71.39;99874.19;5012427;28;20793;-76
2023/05/15 09:34:35;;;;;;;2.23;2.03;;;;;;;22.43;71.07;99872.75;5020475;28;20203;-76
2023/05/15 09:37:05;;;;;;;2.77;2.00;;;;;;;22.41;71.30;99860.53;5018861;28;20203;-77
2023/05/15 09:39:31;;;;;;;2.60;2.33;;;;;;;22.38;70.75;99861.59;5020169;28;20221;-76
2023/05/15 09:42:10;;;;;;;2.53;2.20;;;;;;;22.36;71.18;99859.09;5017767;28;20195;-77
2023/05/15 09:44:40;;;;;;;2.50;2.30;;;;;;;22.34;70.23;99860.97;5022582;28;20237;-76
2023/05/15 09:47:06;;;;;;;2.40;2.20;;;;;;;22.26;70.12;99847.44;5025710;28;20187;-77
2023/05/15 09:49:32;;;;;;;2.43;2.07;;;;;;;22.28;70.36;99855.25;5024614;28;20598;-77
2023/05/15 09:51:58;;;;;;;2.27;2.10;;;;;;;22.30;70.26;99848.09;5020665;28;20222;-76
2023/05/15 09:54:26;;;;;;;2.40;2.20;;;;;;;22.30;70.02;99848.94;5024095;28;21081;-77
2023/05/15 09:56:52;;;;;;;2.30;2.10;;;;;;;22.33;69.76;99842.59;5024574;28;20239;-76
2023/05/15 09:59:20;;;;;;;2.60;2.40;;;;;;;22.25;69.45;99837.00;5018745;28;20187;-77
2023/05/15 10:01:48;;;;;;;2.23;2.13;;;;;;;22.22;69.32;99838.03;5018451;28;20683;-77
2023/05/15 10:04:14;;;;;;;2.70;2.50;;;;;;;22.26;69.41;99831.59;5034654;28;20191;-77
2023/05/15 10:06:41;;;;;;;2.50;2.30;;;;;;;22.26;69.60;99839.50;5021451;28;20326;-75
2023/05/15 10:09:07;;;;;;;2.40;2.20;;;;;;;22.34;69.25;99833.75;5006297;28;20187;-76
2023/05/15 10:11:42;;;;;;;2.80;2.50;;;;;;;22.29;67.41;99830.59;5021153;28;20195;-76
2023/05/15 10:14:09;;;;;;;2.40;2.20;;;;;;;21.98;67.54;99843.94;5025591;28;20668;-76
2023/05/15 10:16:36;;;;;;;2.53;2.33;;;;;;;21.78;68.34;99834.66;5016472;28;20211;-76
2023/05/15 10:19:12;;;;;;;2.37;2.27;;;;;;;21.70;68.57;99834.31;5019121;28;20210;-76
2023/05/15 10:21:39;;;;;;;2.50;2.30;;;;;;;21.89;68.58;99829.56;5021783;28;20209;-74
2023/05/15 10:24:06;;;;;;;2.20;2.10;;;;;;;22.20;68.83;99829.38;5025905;28;20648;-76
2023/05/15 10:26:42;;;;;;;2.83;2.63;;;;;;;22.33;68.74;99829.41;5022273;28;20210;-75
2023/05/15 10:29:12;;;;;;;3.10;2.83;;;;;;;22.05;68.27;99820.69;5022774;28;20191;-75
2023/05/15 10:31:41;;;;;;;2.63;2.43;;;;;;;22.03;68.83;99818.16;5019140;28;20729;-75
2023/05/15 10:34:08;;;;;;;2.67;2.47;;;;;;;22.27;68.86;99817.50;5023240;28;20184;-76
2023/05/15 10:36:35;;;;;;;2.67;2.47;;;;;;;22.49;68.79;99813.47;5022672;28;20229;-75
2023/05/15 10:39:03;;;;;;;2.80;2.60;;;;;;;22.76;68.80;99804.66;5015310;28;20306;-74
2023/05/15 10:41:29;;;;;;;2.73;2.53;;;;;;;23.06;68.02;99808.78;5004713;28;20193;-75
2023/05/15 10:43:58;;;;;;;2.43;2.33;;;;;;;23.37;67.25;99802.22;5026273;28;20207;-74
2023/05/15 10:46:24;;;;;;;2.80;2.60;;;;;;;23.58;66.83;99804.31;5025327;28;20229;-76
2023/05/15 10:48:50;;;;;;;2.47;2.33;;;;;;;23.52;66.33;99804.75;5020490;28;20183;-76
2023/05/15 10:51:17;;;;;;;2.30;2.20;;;;;;;23.38;65.80;99798.63;5004585;28;20278;-76
2023/05/15 10:53:46;;;;;;;3.10;2.80;;;;;;;23.12;64.99;99806.56;5026143;28;20561;-76
2023/05/15 10:56:13;;;;;;;2.00;1.77;;;;;;;23.07;64.63;99811.28;5023291;28;20211;-76
2023/05/15 10:58:42;;;;;;;1.60;1.50;;;;;;;22.91;64.68;99810.69;5023554;28;20576;-75
2023/05/15 11:01:24;;;;;;;1.73;1.50;;;;;;;22.70;64.12;99808.56;5023382;28;20551;-77
2023/05/15 11:03:49;;;;;;;2.17;1.20;;;;;;;22.51;64.85;99814.22;5026078;28;20180;-75
2023/05/15 11:06:15;;;;;;;1.50;1.40;;;;;;;22.33;65.40;99810.97;5026524;28;21010;-75
2023/05/15 11:08:41;;;;;;;1.50;1.40;;;;;;;22.00;66.26;99802.53;5020952;28;20219;-76
2023/05/15 11:11:07;;;;;;;1.67;1.20;;;;;;;21.76;67.58;99805.81;5020011;28;20179;-75
2023/05/15 11:14:04;;;;;;;2.07;1.60;;;;;;;21.58;68.68;99806.94;5008533;28;20194;-75
2023/05/15 11:16:51;;;;;;;1.63;1.53;;;;;;;21.51;69.57;99803.84;5023956;28;20779;-77
2023/05/15 11:20:00;;;;;;;2.40;1.60;;;;;;;21.45;70.43;99805.06;5019091;28;20202;-74
2023/05/15 11:22:31;;;;;;;1.90;1.70;;;;;;;21.43;71.22;99806.97;5024015;28;20211;-76
2023/05/15 11:25:00;;;;;;;2.80;1.77;;;;;;;21.45;71.53;99810.34;4999103;28;20211;-76
2023/05/15 11:27:31;;;;;;;2.10;1.87;;;;;;;21.47;71.31;99807.59;5023524;28;20282;-75
2023/05/15 11:30:09;;;;;;;1.63;1.40;;;;;;;21.37;71.72;99811.75;5021300;28;20286;-75